Time;durP1;ratioP1;P1;durP2;ratioP2;P2;SDS_P1;SDS_P2;PMS_P1;PMS_P2;Temp;Humidity;BMP_temperature;BMP_pressure;BME280_temperature;BME280_humidity;BME280_pressure;Samples;Min_cycle;Max_cycle;Signal;HPM_P1;HPM_P2
2022/05/20 00:02:23;;;;;;;2.90;2.60;;;;;;;12.19;66.41;95909.59;4975131;28;20520;-88
2022/05/20 00:04:50;;;;;;;2.90;2.70;;;;;;;12.12;66.86;95918.06;4975446;28;20551;-89
2022/05/20 00:07:17;;;;;;;2.50;2.30;;;;;;;12.05;67.03;95917.69;4975970;28;20460;-88
2022/05/20 00:09:44;;;;;;;2.77;2.57;;;;;;;12.04;67.63;95918.63;4975730;28;20544;-88
2022/05/20 00:12:11;;;;;;;6.07;3.30;;;;;;;12.01;67.71;95918.84;4975289;28;20444;-88
2022/05/20 00:14:40;;;;;;;3.03;2.83;;;;;;;11.90;68.35;95914.41;4973974;28;20455;-87
2022/05/20 00:17:07;;;;;;;2.67;2.43;;;;;;;11.87;68.66;95919.06;4974169;28;20457;-88
2022/05/20 00:19:35;;;;;;;2.60;2.40;;;;;;;11.77;68.78;95919.66;4974233;28;20468;-88
2022/05/20 00:22:02;;;;;;;4.47;2.73;;;;;;;11.70;69.39;95915.81;4974426;28;20568;-89
2022/05/20 00:24:30;;;;;;;3.60;3.30;;;;;;;11.76;69.88;95925.88;4974347;28;20939;-89
2022/05/20 00:26:56;;;;;;;3.50;2.43;;;;;;;11.70;69.35;95925.50;4974154;28;20476;-88
2022/05/20 00:29:24;;;;;;;2.90;2.70;;;;;;;11.67;70.69;95923.94;4973955;28;20465;-87
2022/05/20 00:31:54;;;;;;;2.97;2.70;;;;;;;11.77;70.31;95927.56;4974182;28;20449;-88
2022/05/20 00:34:21;;;;;;;4.00;2.60;;;;;;;11.82;70.13;95931.66;4973820;28;20448;-87
2022/05/20 00:36:48;;;;;;;3.17;2.87;;;;;;;11.84;69.94;95935.03;4975756;28;20948;-88
2022/05/20 00:39:14;;;;;;;3.90;2.73;;;;;;;11.80;70.66;95934.41;4977632;28;20496;-87
2022/05/20 00:41:41;;;;;;;4.30;2.70;;;;;;;11.59;70.22;95934.16;4978134;28;20480;-86
2022/05/20 00:44:08;;;;;;;2.63;2.43;;;;;;;11.70;70.48;95936.00;4978188;28;20445;-88
2022/05/20 00:46:35;;;;;;;2.63;2.43;;;;;;;11.70;70.91;95936.84;4979086;28;20452;-88
2022/05/20 00:49:08;;;;;;;5.97;2.63;;;;;;;11.70;70.39;95939.47;4978292;28;20452;-88
2022/05/20 00:51:39;;;;;;;2.00;1.90;;;;;;;11.70;70.48;95938.66;4978012;28;20449;-88
2022/05/20 00:54:09;;;;;;;3.33;3.13;;;;;;;11.79;70.42;95949.34;4977646;28;20536;-88
2022/05/20 00:56:40;;;;;;;2.80;2.60;;;;;;;11.84;69.93;95945.53;4977485;28;20477;-88
2022/05/20 00:59:16;;;;;;;3.43;3.10;;;;;;;11.88;69.50;95947.03;4978552;28;20444;-89
2022/05/20 01:01:43;;;;;;;5.57;2.30;;;;;;;11.88;69.71;95939.13;4978732;28;20482;-88
2022/05/20 01:04:11;;;;;;;3.90;2.93;;;;;;;11.97;69.49;95946.34;4978494;28;20960;-89
2022/05/20 01:06:38;;;;;;;3.00;2.67;;;;;;;11.99;70.18;95940.03;4978184;28;20983;-88
2022/05/20 01:09:08;;;;;;;2.80;2.60;;;;;;;11.84;69.76;95941.13;4979194;28;20461;-87
2022/05/20 01:11:37;;;;;;;3.87;2.77;;;;;;;11.82;70.38;95940.41;4978539;28;21003;-87
2022/05/20 01:14:04;;;;;;;2.73;2.53;;;;;;;11.88;69.71;95947.03;4978130;28;20461;-88
2022/05/20 01:16:33;;;;;;;2.77;2.30;;;;;;;11.87;69.17;95943.56;4978454;28;20488;-87
2022/05/20 01:19:01;;;;;;;2.27;2.17;;;;;;;11.83;69.52;95930.72;4977993;28;20441;-88
2022/05/20 01:21:30;;;;;;;3.70;3.40;;;;;;;11.75;69.17;95934.72;4978140;28;20453;-88
2022/05/20 01:24:02;;;;;;;5.97;2.87;;;;;;;11.74;69.41;95929.56;4943553;28;20451;-90
2022/05/20 01:26:29;;;;;;;3.30;2.83;;;;;;;11.55;69.21;95926.59;4928826;28;20802;-89
2022/05/20 01:28:56;;;;;;;2.57;2.37;;;;;;;11.48;69.75;95923.56;4977677;28;20441;-89
2022/05/20 01:31:23;;;;;;;3.10;2.83;;;;;;;11.50;69.83;95932.19;4977070;28;20459;-88
2022/05/20 01:33:52;;;;;;;4.10;3.00;;;;;;;11.47;69.81;95933.25;4976739;28;20477;-89
2022/05/20 01:36:21;;;;;;;4.43;2.43;;;;;;;11.40;70.07;95936.44;4976864;28;20449;-88
2022/05/20 01:38:49;;;;;;;3.00;2.70;;;;;;;11.44;70.43;95932.63;4976525;28;20441;-88
2022/05/20 01:41:21;;;;;;;2.80;2.53;;;;;;;11.43;70.40;95923.91;4977002;28;20449;-89
2022/05/20 01:44:01;;;;;;;3.17;2.90;;;;;;;11.47;70.24;95924.53;4976555;28;20480;-89
2022/05/20 01:46:37;;;;;;;3.10;2.70;;;;;;;11.44;70.97;95932.63;4977230;28;20453;-87
2022/05/20 01:49:34;;;;;;;4.93;2.83;;;;;;;11.32;71.95;95929.09;4975543;28;20445;-87
2022/05/20 01:52:09;;;;;;;9.33;2.97;;;;;;;11.39;71.11;95924.25;4935866;29;20448;-89
2022/05/20 01:54:45;;;;;;;3.53;2.63;;;;;;;11.44;71.17;95930.00;4935794;29;20451;-88
2022/05/20 01:57:20;;;;;;;8.37;3.13;;;;;;;11.31;70.79;95921.31;4935630;29;20945;-88
2022/05/20 01:59:50;;;;;;;4.60;2.40;;;;;;;11.29;71.56;95929.31;4935845;29;20489;-88
2022/05/20 02:02:25;;;;;;;3.00;2.70;;;;;;;11.29;71.09;95934.56;4935488;29;20494;-88
2022/05/20 02:04:58;;;;;;;2.70;2.50;;;;;;;11.23;70.91;95928.88;4920658;29;20485;-88
2022/05/20 02:07:28;;;;;;;3.33;3.03;;;;;;;11.13;72.27;95926.94;4935565;29;20459;-88
2022/05/20 02:10:00;;;;;;;2.60;2.40;;;;;;;11.18;71.58;95929.22;4935337;29;20938;-87
2022/05/20 02:12:36;;;;;;;2.60;2.13;;;;;;;11.05;72.80;95928.41;4935032;29;20455;-88
2022/05/20 02:15:09;;;;;;;4.10;2.90;;;;;;;10.94;72.56;95936.19;4935236;29;20446;-88
2022/05/20 02:17:38;;;;;;;2.40;2.20;;;;;;;10.86;72.64;95934.94;4934868;29;20447;-88
2022/05/20 02:20:10;;;;;;;3.13;2.67;;;;;;;10.95;72.85;95935.25;4935513;29;20467;-88
2022/05/20 02:22:41;;;;;;;3.00;2.80;;;;;;;10.99;72.55;95940.19;4935826;29;20479;-89
2022/05/20 02:25:12;;;;;;;4.53;2.60;;;;;;;11.01;72.62;95940.09;4935755;29;20444;-87
2022/05/20 02:27:46;;;;;;;3.47;3.17;;;;;;;11.01;71.96;95932.22;4941920;28;20469;-88
2022/05/20 02:30:16;;;;;;;3.27;2.30;;;;;;;11.12;71.68;95941.00;4976614;28;20441;-88
2022/05/20 02:32:48;;;;;;;3.03;2.17;;;;;;;11.14;71.11;95949.63;4975786;28;20453;-88
2022/05/20 02:35:15;;;;;;;2.63;2.43;;;;;;;11.13;71.33;95954.97;4975601;28;20457;-88
2022/05/20 02:37:43;;;;;;;6.23;2.93;;;;;;;11.20;72.04;95947.50;4976442;28;20437;-88
2022/05/20 02:40:13;;;;;;;2.73;2.53;;;;;;;11.25;71.54;95946.22;4976869;28;20459;-88
2022/05/20 02:42:42;;;;;;;3.53;2.50;;;;;;;11.25;70.69;95948.00;4976685;28;20484;-88
2022/05/20 02:45:10;;;;;;;2.70;2.50;;;;;;;11.18;70.78;95940.56;4977009;28;20461;-88
2022/05/20 02:47:38;;;;;;;3.37;2.80;;;;;;;11.22;71.18;95943.81;4976437;28;20445;-88
2022/05/20 02:50:08;;;;;;;9.43;2.90;;;;;;;11.22;71.00;95942.97;4976709;28;20457;-88
2022/05/20 02:52:35;;;;;;;2.67;2.47;;;;;;;11.23;71.37;95934.97;4976592;28;20465;-88
2022/05/20 02:55:03;;;;;;;4.30;2.50;;;;;;;11.24;70.65;95930.56;4975709;28;20561;-88
2022/05/20 02:57:30;;;;;;;2.50;2.30;;;;;;;11.31;73.27;95934.47;4976303;28;20544;-87
2022/05/20 03:05:28;;;;;;;4.30;2.40;;;;;;;12.43;71.36;95937.66;4976590;28;20550;-93
2022/05/20 03:07:54;;;;;;;3.50;3.20;;;;;;;12.30;67.31;95937.75;4977418;28;20440;-82
2022/05/20 03:10:22;;;;;;;4.53;2.80;;;;;;;11.99;67.58;95924.22;4975803;28;20442;-82
2022/05/20 03:12:48;;;;;;;2.43;2.33;;;;;;;11.91;68.45;95926.59;4976403;28;20532;-82
2022/05/20 03:18:38;;;;;;;2.40;2.20;;;;;;;11.68;69.56;95930.88;4975488;28;20405;-82
2022/05/20 03:21:05;;;;;;;4.77;3.13;;;;;;;11.60;69.25;95922.72;4975369;28;20916;-82
2022/05/20 03:23:32;;;;;;;3.37;2.37;;;;;;;11.56;69.16;95931.75;4975282;28;20478;-81
2022/05/20 03:25:59;;;;;;;3.00;2.30;;;;;;;11.58;69.75;95929.88;4975949;28;20892;-82
2022/05/20 03:28:26;;;;;;;2.97;2.77;;;;;;;11.67;69.03;95936.25;4975036;28;20516;-82
2022/05/20 03:30:52;;;;;;;2.73;2.53;;;;;;;11.92;68.35;95936.16;4975402;28;20946;-81
2022/05/20 03:33:19;;;;;;;6.07;3.13;;;;;;;12.10;67.58;95941.84;4975957;28;20781;-84
2022/05/20 03:35:48;;;;;;;4.13;2.90;;;;;;;12.18;67.64;95942.13;4975622;28;20452;-81
2022/05/20 03:38:15;;;;;;;2.60;2.40;;;;;;;12.24;66.97;95940.84;4973928;28;20541;-81
2022/05/20 03:40:42;;;;;;;3.43;3.13;;;;;;;12.33;67.78;95950.66;4975482;28;20448;-82
2022/05/20 03:43:10;;;;;;;6.30;3.47;;;;;;;12.34;68.60;95955.81;4941078;28;20487;-82
2022/05/20 03:45:37;;;;;;;7.13;3.60;;;;;;;12.05;70.47;95963.25;4975222;28;20453;-82
2022/05/20 03:48:04;;;;;;;5.33;3.63;;;;;;;12.01;71.38;95961.78;4975085;28;20449;-81
2022/05/20 03:50:30;;;;;;;4.50;3.57;;;;;;;11.61;72.18;95966.44;4975629;28;20450;-81
2022/05/20 03:52:59;;;;;;;5.33;3.20;;;;;;;12.01;72.09;95976.72;4925341;28;20465;-82
2022/05/20 03:55:27;;;;;;;8.27;4.23;;;;;;;12.76;69.66;95987.78;4974864;28;20540;-82
2022/05/20 03:57:54;;;;;;;5.23;3.90;;;;;;;13.67;67.14;95995.66;4974584;28;20444;-81
2022/05/20 04:00:21;;;;;;;4.97;4.47;;;;;;;14.54;61.40;95991.22;4975537;28;20445;-81
2022/05/20 04:02:47;;;;;;;5.90;3.50;;;;;;;15.10;59.61;95993.56;4975030;28;20488;-81
2022/05/20 04:05:14;;;;;;;4.63;3.03;;;;;;;15.54;57.84;95996.81;4974744;28;21027;-81
2022/05/20 04:07:42;;;;;;;3.50;3.30;;;;;;;15.87;56.48;95990.41;4974260;28;20205;-83
2022/05/20 04:10:11;;;;;;;3.87;3.57;;;;;;;16.04;55.33;95993.25;4973624;28;20971;-82
2022/05/20 04:12:41;;;;;;;3.70;3.30;;;;;;;16.27;53.80;95991.19;4974342;28;20438;-82
2022/05/20 04:15:11;;;;;;;7.10;4.83;;;;;;;16.21;54.75;95993.56;4974683;28;20448;-82
2022/05/20 04:17:38;;;;;;;6.50;3.37;;;;;;;16.38;55.04;95987.56;4974530;28;20437;-82
2022/05/20 04:20:08;;;;;;;8.50;3.80;;;;;;;16.78;54.51;95984.00;4974756;28;20465;-83
2022/05/20 04:22:37;;;;;;;5.53;4.40;;;;;;;17.25;53.14;95980.38;4957434;28;20449;-84
2022/05/20 04:25:05;;;;;;;4.30;3.80;;;;;;;17.64;50.81;95974.94;4974214;28;20430;-83
2022/05/20 04:27:33;;;;;;;2.90;2.57;;;;;;;18.05;49.01;95981.59;4974929;28;20932;-80
2022/05/20 04:30:00;;;;;;;3.40;2.67;;;;;;;18.40;47.60;95978.16;4956500;28;20437;-81
2022/05/20 04:32:27;;;;;;;4.23;2.40;;;;;;;18.63;46.27;95975.06;4974979;28;20452;-84
2022/05/20 04:34:53;;;;;;;2.93;2.67;;;;;;;18.79;45.67;95970.72;4974416;28;20449;-83
2022/05/20 04:37:22;;;;;;;3.13;2.80;;;;;;;19.05;44.72;95975.22;4974688;28;20437;-83
2022/05/20 04:39:49;;;;;;;7.27;2.60;;;;;;;19.33;44.39;95970.59;4974657;28;20776;-83
2022/05/20 04:47:47;;;;;;;4.60;2.53;;;;;;;20.16;42.70;95982.31;4945889;28;20433;-83
2022/05/20 04:50:14;;;;;;;4.50;2.90;;;;;;;20.48;42.48;95978.06;4974323;28;20896;-83
2022/05/20 04:52:41;;;;;;;3.30;3.07;;;;;;;20.02;42.82;95983.78;4974641;28;20464;-81
2022/05/20 04:55:08;;;;;;;6.33;4.43;;;;;;;19.24;46.58;95988.34;4956511;28;20473;-81
2022/05/20 04:57:36;;;;;;;9.40;3.90;;;;;;;19.33;46.52;95991.88;4974291;28;20512;-81
2022/05/20 05:00:08;;;;;;;4.83;3.50;;;;;;;19.19;45.27;95999.44;4974403;28;20434;-81
2022/05/20 05:02:35;;;;;;;6.53;3.10;;;;;;;19.29;44.61;95999.34;4974134;28;20513;-82
2022/05/20 05:05:02;;;;;;;7.93;4.63;;;;;;;19.25;46.03;96000.66;4973757;28;20445;-82
2022/05/20 05:07:29;;;;;;;7.10;3.97;;;;;;;19.31;45.65;95999.19;4974281;28;20456;-82
2022/05/20 05:09:56;;;;;;;4.60;4.07;;;;;;;19.23;44.46;95996.47;4974073;28;20459;-81
2022/05/20 05:12:24;;;;;;;6.10;3.33;;;;;;;19.60;43.65;95998.88;4973962;28;20481;-78
2022/05/20 05:14:53;;;;;;;6.60;4.10;;;;;;;19.53;43.09;96004.03;4974103;28;21012;-79
2022/05/20 05:20:07;;;;;;;7.83;3.80;;;;;;;19.77;43.92;96003.31;4973372;28;20912;-80
2022/05/20 05:22:34;;;;;;;4.50;4.07;;;;;;;20.30;44.26;95999.53;4974503;28;20458;-82
2022/05/20 05:25:01;;;;;;;12.03;4.30;;;;;;;20.87;42.37;95997.81;4977859;28;20490;-88
2022/05/20 05:27:28;;;;;;;9.40;4.63;;;;;;;21.04;41.87;96001.28;4979037;28;20456;-89
2022/05/20 05:29:55;;;;;;;4.13;3.73;;;;;;;21.20;40.73;96000.47;4977620;28;20437;-85
2022/05/20 05:32:23;;;;;;;6.57;3.67;;;;;;;21.50;38.94;96001.63;4977443;28;20444;-84
2022/05/20 05:34:50;;;;;;;5.63;4.40;;;;;;;21.52;38.50;96003.13;4972118;28;20462;-86
2022/05/20 05:37:17;;;;;;;4.73;3.40;;;;;;;21.32;39.97;96001.81;4958913;29;20426;-86
2022/05/20 05:39:44;;;;;;;7.10;4.10;;;;;;;21.58;40.17;95999.75;4924866;29;20461;-86
2022/05/20 05:42:11;;;;;;;8.80;4.20;;;;;;;21.68;39.40;95994.22;4957729;29;20457;-86
2022/05/20 05:44:38;;;;;;;5.23;3.67;;;;;;;21.74;38.89;95995.38;4957889;29;20473;-87
2022/05/20 05:47:05;;;;;;;11.53;4.50;;;;;;;21.86;39.21;95989.47;4957761;29;20438;-86
2022/05/20 05:49:34;;;;;;;5.43;4.10;;;;;;;22.18;39.73;95985.03;4957792;29;20454;-86
2022/05/20 05:52:01;;;;;;;15.87;4.10;;;;;;;22.45;38.46;95979.19;4957734;29;20724;-86
2022/05/20 05:54:28;;;;;;;8.60;4.90;;;;;;;22.66;38.04;95975.06;4957677;29;20454;-85
2022/05/20 05:56:55;;;;;;;12.77;4.60;;;;;;;22.55;39.35;95976.28;4956833;29;20450;-87
2022/05/20 05:59:21;;;;;;;7.13;3.90;;;;;;;22.51;38.66;95972.31;4907505;29;20457;-85
2022/05/20 06:01:48;;;;;;;10.17;3.47;;;;;;;22.66;38.39;95983.91;4956868;29;20979;-87
2022/05/20 06:04:16;;;;;;;5.40;3.37;;;;;;;22.99;37.47;95978.34;4956895;29;20485;-85
2022/05/20 06:06:44;;;;;;;4.20;3.30;;;;;;;23.40;37.61;95982.31;4957063;29;20996;-87
2022/05/20 06:09:11;;;;;;;4.27;3.77;;;;;;;23.61;36.39;95980.78;4956819;29;20461;-86
2022/05/20 06:11:39;;;;;;;3.90;3.30;;;;;;;23.91;35.27;95979.78;4956563;29;20446;-86
2022/05/20 06:14:07;;;;;;;11.73;4.17;;;;;;;23.94;35.81;95974.03;4956791;29;20454;-86
2022/05/20 06:16:34;;;;;;;7.60;4.50;;;;;;;23.68;36.56;95979.03;4956829;29;20457;-84
2022/05/20 06:19:01;;;;;;;7.40;4.30;;;;;;;23.42;37.73;95984.84;4956437;29;20805;-86
2022/05/20 06:21:28;;;;;;;7.33;3.83;;;;;;;22.64;38.17;95982.44;4957072;29;20457;-86
2022/05/20 06:23:57;;;;;;;3.93;3.63;;;;;;;22.66;39.11;95983.91;4956846;29;20585;-85
2022/05/20 06:26:24;;;;;;;17.10;4.10;;;;;;;22.86;39.52;95985.16;4956632;29;20485;-86
2022/05/20 06:28:51;;;;;;;6.60;3.37;;;;;;;22.95;39.58;95972.53;4956535;29;20480;-85
2022/05/20 06:31:18;;;;;;;5.60;3.63;;;;;;;22.70;39.65;95973.69;4956083;29;20442;-85
2022/05/20 06:33:46;;;;;;;6.20;3.77;;;;;;;22.94;39.14;95970.03;4955773;28;20446;-86
2022/05/20 06:41:43;;;;;;;6.27;3.50;;;;;;;23.79;37.36;95966.03;4956561;29;20796;-86
2022/05/20 06:44:10;;;;;;;8.87;3.87;;;;;;;23.04;37.84;95959.88;4956408;29;20486;-86
2022/05/20 06:46:37;;;;;;;4.70;3.77;;;;;;;23.20;38.84;95972.31;4922727;29;20442;-85
2022/05/20 06:49:05;;;;;;;3.93;3.53;;;;;;;23.13;38.15;95964.16;4960461;29;20501;-86
2022/05/20 06:51:33;;;;;;;5.17;3.60;;;;;;;22.58;38.35;95972.44;4961714;29;20465;-88
2022/05/20 06:54:03;;;;;;;10.40;3.30;;;;;;;22.71;38.66;95962.81;4956208;29;20445;-86
2022/05/20 06:56:31;;;;;;;3.40;3.10;;;;;;;22.63;39.45;95973.56;4956039;29;20475;-87
2022/05/20 06:58:58;;;;;;;4.00;3.07;;;;;;;22.66;40.13;95978.56;4955562;29;20465;-86
2022/05/20 07:01:26;;;;;;;5.40;3.27;;;;;;;22.76;39.66;95967.63;4955461;29;20453;-87
2022/05/20 07:03:53;;;;;;;7.10;4.20;;;;;;;22.23;40.81;95974.63;4921466;29;20477;-86
2022/05/20 07:06:21;;;;;;;5.10;3.50;;;;;;;22.29;42.12;95967.78;4955450;29;20928;-86
2022/05/20 07:08:49;;;;;;;3.50;3.20;;;;;;;21.37;42.51;95966.56;4955526;29;20451;-86
2022/05/20 07:11:18;;;;;;;10.10;3.80;;;;;;;21.24;43.02;95967.94;4955430;29;20758;-86
2022/05/20 07:13:45;;;;;;;3.87;3.20;;;;;;;21.68;42.05;95961.31;4955415;29;20454;-86
2022/05/20 07:16:14;;;;;;;4.93;3.17;;;;;;;22.11;42.88;95955.50;4955630;29;20454;-86
2022/05/20 07:18:43;;;;;;;8.23;3.93;;;;;;;22.44;41.10;95960.66;4957179;29;20444;-87
2022/05/20 07:21:11;;;;;;;6.70;3.67;;;;;;;22.73;40.92;95963.47;4955471;29;20980;-86
2022/05/20 07:23:38;;;;;;;3.40;3.10;;;;;;;23.15;40.66;95956.78;4955523;29;20818;-85
2022/05/20 07:26:05;;;;;;;4.20;3.07;;;;;;;23.54;39.66;95963.75;4906344;29;20541;-85
2022/05/20 07:28:34;;;;;;;7.00;4.27;;;;;;;23.66;37.53;95959.63;4954956;29;20472;-87
2022/05/20 07:31:01;;;;;;;4.13;3.73;;;;;;;23.55;36.98;95958.22;4954834;29;20465;-85
2022/05/20 07:33:30;;;;;;;4.60;3.60;;;;;;;23.83;38.80;95957.59;4955180;29;20525;-85
2022/05/20 07:35:57;;;;;;;3.73;3.13;;;;;;;23.59;39.30;95953.34;4954919;29;20465;-86
2022/05/20 07:38:24;;;;;;;7.00;4.37;;;;;;;23.85;39.81;95950.22;4905475;29;20439;-86
2022/05/20 07:40:52;;;;;;;4.50;3.77;;;;;;;23.69;37.98;95952.06;4955140;29;20477;-87
2022/05/20 07:43:20;;;;;;;6.50;4.50;;;;;;;23.82;38.15;95950.59;4954660;29;20941;-86
2022/05/20 07:45:49;;;;;;;5.30;3.93;;;;;;;23.81;38.36;95944.38;4954654;29;20513;-86
2022/05/20 07:48:16;;;;;;;11.50;3.90;;;;;;;23.86;38.27;95939.28;4955053;29;20461;-86
2022/05/20 07:50:46;;;;;;;6.63;4.50;;;;;;;23.92;38.77;95946.59;4955222;29;20497;-86
2022/05/20 07:53:21;;;;;;;12.10;3.43;;;;;;;23.94;37.95;95947.22;4955388;29;20549;-87
2022/05/20 07:55:53;;;;;;;7.70;4.00;;;;;;;24.19;38.25;95937.00;4955041;29;20473;-87
2022/05/20 07:58:23;;;;;;;10.20;5.63;;;;;;;24.42;35.52;95947.63;4954963;29;20486;-86
2022/05/20 08:00:52;;;;;;;6.47;3.97;;;;;;;24.20;35.03;95943.22;4954891;29;20454;-85
2022/05/20 08:06:00;;;;;;;16.73;5.40;;;;;;;23.84;36.54;95938.66;4924460;29;20529;-86
2022/05/20 08:08:27;;;;;;;9.33;4.87;;;;;;;24.02;35.03;95931.06;4954485;29;20446;-87
2022/05/20 08:10:54;;;;;;;5.83;4.50;;;;;;;24.18;35.92;95931.84;4955022;29;20944;-87
2022/05/20 08:13:22;;;;;;;9.73;5.10;;;;;;;24.28;36.51;95919.81;4954540;29;20484;-87
2022/05/20 08:15:49;;;;;;;13.23;6.33;;;;;;;24.23;35.38;95922.19;4920559;29;20454;-86
2022/05/20 08:18:18;;;;;;;10.73;5.17;;;;;;;24.28;36.73;95924.34;4954723;29;20456;-87
2022/05/20 08:20:45;;;;;;;7.63;4.87;;;;;;;24.14;35.55;95919.84;4954700;29;20450;-87
2022/05/20 08:23:12;;;;;;;10.60;5.70;;;;;;;24.10;35.20;95920.22;4955092;29;20442;-86
2022/05/20 08:25:39;;;;;;;7.47;4.83;;;;;;;24.06;36.21;95921.63;4955252;29;20482;-85
2022/05/20 08:28:07;;;;;;;16.87;6.40;;;;;;;24.18;35.87;95921.13;4954879;29;20799;-85
2022/05/20 08:30:34;;;;;;;8.83;6.20;;;;;;;24.37;34.42;95924.06;4955060;29;20450;-86
2022/05/20 08:33:01;;;;;;;9.53;6.17;;;;;;;24.51;34.46;95916.13;4905850;29;20449;-86
2022/05/20 08:35:29;;;;;;;13.13;6.30;;;;;;;24.69;35.52;95916.53;4954783;29;20442;-85
2022/05/20 08:37:56;;;;;;;8.40;5.03;;;;;;;24.57;33.41;95916.19;4954797;29;20446;-84
2022/05/20 08:40:25;;;;;;;9.53;4.80;;;;;;;24.56;34.52;95917.22;4954550;29;20450;-86
2022/05/20 08:42:55;;;;;;;10.33;4.77;;;;;;;24.59;32.93;95916.03;4955020;29;20453;-86
2022/05/20 08:45:30;;;;;;;7.33;4.23;;;;;;;24.61;31.37;95913.97;4954771;29;20473;-85
2022/05/20 08:47:57;;;;;;;7.70;4.20;;;;;;;24.56;32.19;95914.53;4954628;29;20441;-86
2022/05/20 08:50:27;;;;;;;8.43;4.60;;;;;;;24.36;31.89;95910.84;4954772;29;20457;-85
2022/05/20 08:52:57;;;;;;;6.87;4.10;;;;;;;24.38;31.47;95903.41;4954987;29;20576;-86
2022/05/20 08:55:25;;;;;;;7.30;4.77;;;;;;;24.45;32.30;95908.84;4955090;29;20548;-86
2022/05/20 08:57:56;;;;;;;5.77;3.93;;;;;;;24.60;33.44;95899.72;4957063;28;20460;-86
2022/05/20 09:00:23;;;;;;;7.83;4.23;;;;;;;24.60;31.43;95886.31;4958527;29;20454;-86
2022/05/20 09:02:50;;;;;;;10.10;5.23;;;;;;;24.66;31.69;95896.28;4958354;29;20465;-85
2022/05/20 09:05:21;;;;;;;5.60;4.13;;;;;;;24.67;31.71;95887.19;4958319;29;20855;-86
2022/05/20 09:07:59;;;;;;;6.70;4.97;;;;;;;24.83;31.45;95885.25;4958169;29;20943;-87
2022/05/20 09:10:31;;;;;;;14.13;4.23;;;;;;;24.91;30.40;95869.84;4958173;29;20449;-86
2022/05/20 09:13:07;;;;;;;9.43;5.63;;;;;;;25.08;30.38;95872.25;4957898;29;20458;-85
2022/05/20 09:15:46;;;;;;;9.27;4.80;;;;;;;25.19;31.35;95866.34;4957992;29;20492;-86
2022/05/20 09:18:18;;;;;;;7.80;5.87;;;;;;;25.05;30.33;95861.91;4957847;29;20442;-86
2022/05/20 09:20:47;;;;;;;9.03;4.10;;;;;;;25.00;30.19;95865.19;4924369;29;20820;-86
2022/05/20 09:23:20;;;;;;;16.63;4.50;;;;;;;24.87;29.88;95857.00;4957588;29;20481;-86
2022/05/20 09:25:53;;;;;;;20.30;4.80;;;;;;;25.00;31.31;95849.91;4957405;29;20477;-86
2022/05/20 09:28:29;;;;;;;6.93;4.43;;;;;;;25.08;29.98;95851.59;4957531;29;20959;-87
2022/05/20 09:31:06;;;;;;;17.23;6.00;;;;;;;25.04;31.26;95841.44;4957369;29;20453;-86
2022/05/20 09:33:36;;;;;;;6.73;5.60;;;;;;;24.71;32.32;95840.13;4957646;29;20438;-86
2022/05/20 09:36:05;;;;;;;10.40;5.00;;;;;;;24.59;32.44;95841.72;4958014;29;20454;-85
2022/05/20 09:38:39;;;;;;;9.10;5.23;;;;;;;23.83;33.84;95840.47;4957863;29;20430;-86
2022/05/20 09:41:12;;;;;;;13.90;5.73;;;;;;;24.10;35.16;95838.94;4957801;29;20445;-86
2022/05/20 09:43:41;;;;;;;9.43;4.97;;;;;;;23.87;33.18;95833.72;4957249;29;20454;-86
2022/05/20 09:46:25;;;;;;;8.10;5.47;;;;;;;23.97;34.68;95828.03;4957477;29;20497;-87
2022/05/20 09:48:59;;;;;;;13.00;5.97;;;;;;;24.12;33.95;95825.31;4957526;29;20457;-87
2022/05/20 09:51:35;;;;;;;8.50;4.90;;;;;;;24.05;32.71;95827.94;4924000;29;20450;-88
2022/05/20 09:54:13;;;;;;;7.97;5.03;;;;;;;23.95;32.07;95825.56;4957801;29;20488;-87
2022/05/20 09:56:43;;;;;;;15.33;6.43;;;;;;;23.94;32.22;95821.22;4957656;28;20482;-86
2022/05/20 09:59:28;;;;;;;7.27;5.17;;;;;;;23.80;29.73;95814.06;4957693;29;20835;-87
2022/05/20 10:02:01;;;;;;;9.53;4.13;;;;;;;23.33;30.09;95823.34;4957297;29;20450;-87
2022/05/20 10:04:46;;;;;;;8.50;4.87;;;;;;;23.28;31.78;95809.69;4957519;29;20485;-85
2022/05/20 10:07:20;;;;;;;6.33;4.07;;;;;;;23.44;29.05;95805.97;4957446;29;20457;-86
2022/05/20 10:09:54;;;;;;;8.87;4.03;;;;;;;23.67;29.53;95809.34;4956563;28;20461;-87
2022/05/20 10:12:28;;;;;;;5.70;3.80;;;;;;;23.63;28.12;95797.38;4957287;29;20476;-86
2022/05/20 10:15:03;;;;;;;5.13;3.60;;;;;;;23.63;28.22;95801.88;4956883;29;20924;-87
2022/05/20 10:17:41;;;;;;;7.20;3.13;;;;;;;23.49;27.22;95801.72;4956704;29;20909;-86
2022/05/20 10:20:14;;;;;;;5.57;3.70;;;;;;;23.77;28.89;95790.31;4957097;29;20451;-86
2022/05/20 10:22:52;;;;;;;11.63;3.83;;;;;;;24.00;28.25;95788.31;4957146;29;20457;-86
2022/05/20 10:25:29;;;;;;;15.50;3.80;;;;;;;24.19;28.17;95788.66;4956697;29;20581;-86
2022/05/20 10:28:05;;;;;;;3.63;2.90;;;;;;;24.41;28.30;95784.97;4956749;29;20792;-87
2022/05/20 10:33:26;;;;;;;7.43;3.57;;;;;;;24.65;26.93;95760.41;4956360;29;20446;-85
2022/05/20 10:36:04;;;;;;;4.47;2.90;;;;;;;24.73;25.82;95766.63;4956177;29;20454;-87
2022/05/20 10:38:52;;;;;;;9.53;3.20;;;;;;;24.80;25.25;95778.25;4956176;29;21136;-86
2022/05/20 10:41:37;;;;;;;3.33;3.03;;;;;;;24.83;26.67;95765.25;4935057;29;20452;-87
2022/05/20 10:50:09;;;;;;;7.90;3.40;;;;;;;24.53;25.89;95761.94;4936561;29;20434;-87
2022/05/20 10:53:02;;;;;;;7.00;3.03;;;;;;;24.50;25.69;95751.59;4887151;29;20458;-87
2022/05/20 10:55:43;;;;;;;4.93;3.10;;;;;;;24.54;25.56;95742.13;4934266;29;20833;-86
2022/05/20 10:58:33;;;;;;;6.83;3.27;;;;;;;24.58;24.94;95742.59;4934323;29;20455;-87
2022/05/20 11:01:05;;;;;;;4.63;3.27;;;;;;;24.66;25.46;95743.28;4918502;29;20828;-86
2022/05/20 11:03:54;;;;;;;4.30;2.60;;;;;;;24.71;25.34;95740.00;4934169;29;20451;-87
2022/05/20 11:06:53;;;;;;;3.20;2.90;;;;;;;24.78;22.76;95732.78;4934256;29;20639;-87
2022/05/20 11:09:28;;;;;;;5.70;2.60;;;;;;;24.90;23.39;95730.41;4934266;29;21259;-86
2022/05/20 11:11:59;;;;;;;5.50;3.17;;;;;;;25.05;23.19;95724.91;4934352;29;20447;-86
2022/05/20 11:15:10;;;;;;;6.77;2.67;;;;;;;25.25;23.31;95728.53;4934374;29;20462;-87
2022/05/20 11:18:06;;;;;;;5.87;3.10;;;;;;;25.26;24.81;95722.97;4806689;29;20469;-87
2022/05/20 11:20:54;;;;;;;2.90;2.20;;;;;;;25.18;22.42;95720.47;4822142;29;20453;-87
2022/05/20 11:23:47;;;;;;;5.20;2.40;;;;;;;25.25;23.30;95712.41;4823009;29;20544;-87
2022/05/20 11:26:42;;;;;;;2.40;1.80;;;;;;;24.95;19.24;95711.84;4776566;29;20491;-87
2022/05/20 11:29:35;;;;;;;5.00;2.00;;;;;;;24.70;18.04;95708.81;4822708;29;20460;-86
2022/05/20 11:32:05;;;;;;;5.70;2.90;;;;;;;24.87;19.44;95706.63;4768268;30;20473;-86
2022/05/20 11:35:04;;;;;;;4.53;2.47;;;;;;;24.92;20.72;95701.50;4768533;30;20458;-87
2022/05/20 11:37:48;;;;;;;5.10;2.30;;;;;;;24.99;22.22;95691.63;4768465;30;20467;-86
2022/05/20 11:40:37;;;;;;;9.90;2.47;;;;;;;25.00;20.93;95693.28;4768074;30;20447;-87
2022/05/20 11:43:43;;;;;;;5.87;2.10;;;;;;;24.96;20.47;95687.47;4732382;30;20825;-87
2022/05/20 11:46:26;;;;;;;2.80;2.23;;;;;;;25.00;20.62;95682.56;4731875;30;20620;-86
2022/05/20 11:49:17;;;;;;;5.37;2.13;;;;;;;24.90;19.88;95682.06;4733544;30;20467;-86
2022/05/20 11:52:13;;;;;;;3.00;2.33;;;;;;;24.97;21.49;95680.25;4732579;30;20793;-87
2022/05/20 11:54:47;;;;;;;4.50;2.07;;;;;;;25.03;22.86;95671.41;4807005;29;20459;-85
2022/05/20 11:57:17;;;;;;;3.00;2.00;;;;;;;25.12;21.08;95674.75;4858191;29;20459;-85
2022/05/20 11:59:50;;;;;;;1.90;1.60;;;;;;;25.02;19.92;95670.59;4828338;29;20454;-85
2022/05/20 12:02:18;;;;;;;2.43;1.80;;;;;;;24.93;20.68;95662.88;4829448;29;20451;-85
2022/05/20 12:04:48;;;;;;;3.17;1.90;;;;;;;24.94;20.41;95664.53;4858224;29;20517;-85
2022/05/20 12:07:18;;;;;;;2.50;2.30;;;;;;;25.09;19.43;95659.03;4858632;29;20458;-85
2022/05/20 12:09:47;;;;;;;2.80;1.60;;;;;;;25.15;18.79;95650.16;4871938;29;20502;-86
2022/05/20 12:12:24;;;;;;;2.73;1.63;;;;;;;25.26;20.31;95654.97;4876762;29;20457;-86
2022/05/20 13:24:36;;;;;;;2.20;2.00;;;;;;;25.08;23.89;95566.88;5091769;27;20539;-85
2022/05/20 13:27:05;;;;;;;4.20;2.63;;;;;;;25.10;24.35;95567.50;5090929;28;20428;-85
2022/05/20 13:29:32;;;;;;;4.33;2.23;;;;;;;25.15;24.87;95561.50;5072524;28;20455;-84
2022/05/20 13:32:12;;;;;;;1.80;1.70;;;;;;;25.26;21.80;95553.69;5091101;28;20918;-85
2022/05/20 13:34:40;;;;;;;3.23;2.13;;;;;;;25.41;23.54;95549.97;5090993;28;20438;-85